createdAt,value
2019-03-20T00:00:01.506Z,7.80
2019-03-20T00:01:10.032Z,7.80
2019-03-20T00:02:14.269Z,7.80
2019-03-20T00:03:18.496Z,7.80
2019-03-20T00:04:22.700Z,7.80
2019-03-20T00:05:26.902Z,7.70
2019-03-20T00:06:31.119Z,7.70
2019-03-20T00:07:35.315Z,7.70
2019-03-20T00:08:39.547Z,7.70
2019-03-20T00:09:43.747Z,7.70
2019-03-20T00:10:47.968Z,7.70
2019-03-20T00:11:52.172Z,7.70
2019-03-20T00:12:56.376Z,7.70
2019-03-20T00:14:00.603Z,7.70
2019-03-20T00:15:05.876Z,7.60
2019-03-20T00:16:10.067Z,7.60
2019-03-20T00:17:14.280Z,7.60
2019-03-20T00:18:18.483Z,7.60
2019-03-20T00:19:22.778Z,7.60
2019-03-20T00:20:27.063Z,7.60
2019-03-20T00:21:31.205Z,7.60
2019-03-20T00:22:35.417Z,7.60
2019-03-20T00:23:39.623Z,7.60
2019-03-20T00:24:43.868Z,7.60
2019-03-20T00:25:48.113Z,7.60
2019-03-20T00:26:52.331Z,7.60
2019-03-20T00:27:56.534Z,7.60
2019-03-20T00:29:00.770Z,7.60
2019-03-20T00:30:06.111Z,7.60
2019-03-20T00:31:10.324Z,7.60
2019-03-20T00:32:14.520Z,7.60
2019-03-20T00:33:18.722Z,7.50
2019-03-20T00:34:23.047Z,7.50
2019-03-20T00:35:27.259Z,7.50
2019-03-20T00:36:31.465Z,7.50
2019-03-20T00:37:35.666Z,7.50
2019-03-20T00:38:39.881Z,7.50
2019-03-20T00:39:44.107Z,7.40
2019-03-20T00:40:48.312Z,7.50
2019-03-20T00:41:52.515Z,7.40
2019-03-20T00:42:56.720Z,7.40
2019-03-20T00:44:00.931Z,7.40
2019-03-20T00:45:05.799Z,7.40
2019-03-20T00:46:10.019Z,7.30
2019-03-20T00:47:14.224Z,7.30
2019-03-20T00:48:18.434Z,7.30
2019-03-20T00:49:22.667Z,7.30
2019-03-20T00:50:26.871Z,7.30
2019-03-20T00:51:31.083Z,7.20
2019-03-20T00:52:35.288Z,7.20
2019-03-20T00:53:39.542Z,7.20
2019-03-20T00:54:44.162Z,7.20
2019-03-20T00:55:48.356Z,7.20
2019-03-20T00:56:52.566Z,7.20
2019-03-20T00:57:56.972Z,7.20
2019-03-20T00:59:01.167Z,7.20
2019-03-20T01:00:06.699Z,7.20
2019-03-20T01:01:10.894Z,7.10
2019-03-20T01:02:15.071Z,7.10
2019-03-20T01:03:19.287Z,7.10
2019-03-20T01:04:23.511Z,7.10
2019-03-20T01:05:27.784Z,7.10
2019-03-20T01:06:31.992Z,7.10
2019-03-20T01:07:36.242Z,7.10
2019-03-20T01:08:40.452Z,7.10
2019-03-20T01:09:44.683Z,7.10
2019-03-20T01:10:48.904Z,7.10
2019-03-20T01:11:53.112Z,7.10
2019-03-20T01:12:57.366Z,7.10
2019-03-20T01:14:01.612Z,7.10
2019-03-20T01:15:06.203Z,7.10
2019-03-20T01:16:10.411Z,7.10
2019-03-20T01:17:14.618Z,7.10
2019-03-20T01:18:18.817Z,7.10
2019-03-20T01:19:23.035Z,7.10
2019-03-20T01:20:27.271Z,7.10
2019-03-20T01:21:31.472Z,7.10
2019-03-20T01:22:35.675Z,7.10
2019-03-20T01:23:39.883Z,7.10
2019-03-20T01:24:44.083Z,7.00
2019-03-20T01:25:48.501Z,7.00
2019-03-20T01:26:52.695Z,7.00
2019-03-20T01:27:56.899Z,7.00
2019-03-20T01:29:01.132Z,7.00
2019-03-20T01:30:06.140Z,7.00
2019-03-20T01:31:10.373Z,7.00
2019-03-20T01:32:14.567Z,7.00
2019-03-20T01:33:18.772Z,7.00
2019-03-20T01:34:22.994Z,7.00
2019-03-20T01:35:27.215Z,6.90
2019-03-20T01:36:31.420Z,6.90
2019-03-20T01:37:35.628Z,6.90
2019-03-20T01:38:39.823Z,6.90
2019-03-20T01:39:44.051Z,6.90
2019-03-20T01:40:48.288Z,6.90
2019-03-20T01:41:52.502Z,6.90
2019-03-20T01:42:56.713Z,6.90
2019-03-20T01:44:00.920Z,6.90
2019-03-20T01:45:05.564Z,6.90
2019-03-20T01:46:09.779Z,6.90
2019-03-20T01:47:13.976Z,6.90
2019-03-20T01:48:18.187Z,6.90
2019-03-20T01:49:22.382Z,6.90
2019-03-20T01:50:26.592Z,6.80
2019-03-20T01:51:30.831Z,6.90
2019-03-20T01:52:35.036Z,6.80
2019-03-20T01:53:39.238Z,6.90
2019-03-20T01:54:43.445Z,6.80
2019-03-20T01:55:47.676Z,6.80
2019-03-20T01:56:51.892Z,6.80
2019-03-20T01:57:56.095Z,6.80
2019-03-20T01:59:00.302Z,6.80
2019-03-20T02:00:04.659Z,6.80
2019-03-20T02:01:08.883Z,6.70
2019-03-20T02:02:13.091Z,6.70
2019-03-20T02:03:17.288Z,6.70
2019-03-20T02:04:21.491Z,6.70
2019-03-20T02:05:35.152Z,6.70
2019-03-20T02:06:31.574Z,6.60
2019-03-20T02:07:35.784Z,6.70
2019-03-20T02:08:39.987Z,6.60
2019-03-20T02:09:44.187Z,6.60
2019-03-20T02:10:48.439Z,6.60
2019-03-20T02:11:52.696Z,6.60
2019-03-20T02:12:58.649Z,6.60
2019-03-20T02:14:02.692Z,6.60
2019-03-20T02:15:09.467Z,6.60
2019-03-20T02:16:13.698Z,6.60
2019-03-20T02:17:17.899Z,6.60
2019-03-20T02:18:22.104Z,6.60
2019-03-20T02:19:26.308Z,6.60
2019-03-20T02:20:30.715Z,6.60
2019-03-20T02:21:34.948Z,6.60
2019-03-20T02:22:39.156Z,6.60
2019-03-20T02:23:43.368Z,6.60
2019-03-20T02:24:47.604Z,6.60
2019-03-20T02:25:51.810Z,6.60
2019-03-20T02:26:56.079Z,6.60
2019-03-20T02:28:00.284Z,6.50
2019-03-20T02:29:04.488Z,6.50
2019-03-20T02:30:11.315Z,6.50
2019-03-20T02:31:15.540Z,6.50
2019-03-20T02:32:19.780Z,6.50
2019-03-20T02:33:23.978Z,6.50
2019-03-20T02:34:28.185Z,6.50
2019-03-20T02:35:32.389Z,6.50
2019-03-20T02:36:36.631Z,6.50
2019-03-20T02:37:40.825Z,6.50
2019-03-20T02:38:45.030Z,6.50
2019-03-20T02:39:49.229Z,6.50
2019-03-20T02:40:53.437Z,6.50
2019-03-20T02:41:57.679Z,6.40
2019-03-20T02:43:01.882Z,6.40
2019-03-20T02:44:06.072Z,6.40
2019-03-20T02:45:11.698Z,6.40
2019-03-20T02:46:15.985Z,6.40
2019-03-20T02:47:20.221Z,6.40
2019-03-20T02:48:24.429Z,6.40
2019-03-20T02:49:28.638Z,6.40
2019-03-20T02:50:32.834Z,6.40
2019-03-20T02:51:37.093Z,6.40
2019-03-20T02:52:41.375Z,6.40
2019-03-20T02:53:45.565Z,6.40
2019-03-20T02:54:49.765Z,6.30
2019-03-20T02:55:53.960Z,6.30
2019-03-20T02:56:58.200Z,6.40
2019-03-20T02:58:02.411Z,6.30
2019-03-20T02:59:06.616Z,6.30
2019-03-20T03:00:12.520Z,6.30
2019-03-20T03:01:16.812Z,6.30
2019-03-20T03:02:20.974Z,6.30
2019-03-20T03:03:25.324Z,6.30
2019-03-20T03:04:29.525Z,6.30
2019-03-20T03:05:33.734Z,6.30
2019-03-20T03:06:37.969Z,6.20
2019-03-20T03:07:42.215Z,6.20
2019-03-20T03:08:46.406Z,6.20
2019-03-20T03:09:50.610Z,6.20
2019-03-20T03:10:55.821Z,6.20
2019-03-20T03:12:00.151Z,6.20
2019-03-20T03:13:04.376Z,6.20
2019-03-20T03:14:08.574Z,6.10
2019-03-20T03:15:12.734Z,6.10
2019-03-20T03:16:16.939Z,6.10
2019-03-20T03:17:21.176Z,6.10
2019-03-20T03:18:25.391Z,6.10
2019-03-20T03:19:29.602Z,6.10
2019-03-20T03:20:33.805Z,6.00
2019-03-20T03:21:38.060Z,6.10
2019-03-20T03:22:42.295Z,6.00
2019-03-20T03:23:46.484Z,6.00
2019-03-20T03:24:50.732Z,6.00
2019-03-20T03:25:54.967Z,6.00
2019-03-20T03:26:59.168Z,6.00
2019-03-20T03:28:03.405Z,6.00
2019-03-20T03:29:07.616Z,6.00
2019-03-20T03:30:12.102Z,6.00
2019-03-20T03:31:16.300Z,6.00
2019-03-20T03:32:20.541Z,6.00
2019-03-20T03:33:24.744Z,6.00
2019-03-20T03:34:28.970Z,5.90
2019-03-20T03:35:33.186Z,6.00
2019-03-20T03:36:37.431Z,6.00
2019-03-20T03:37:41.675Z,6.00
2019-03-20T03:38:46.007Z,5.90
2019-03-20T03:39:50.204Z,5.90
2019-03-20T03:40:54.437Z,5.90
2019-03-20T03:41:58.607Z,5.90
2019-03-20T03:43:02.852Z,5.90
2019-03-20T03:44:07.109Z,5.90
2019-03-20T03:45:12.078Z,5.90
2019-03-20T03:46:16.271Z,5.90
2019-03-20T03:47:20.477Z,5.90
2019-03-20T03:48:24.714Z,5.90
2019-03-20T03:49:28.919Z,5.90
2019-03-20T03:50:33.145Z,5.90
2019-03-20T03:51:37.368Z,5.90
2019-03-20T03:52:41.579Z,5.90
2019-03-20T03:53:45.787Z,5.80
2019-03-20T03:54:49.976Z,5.90
2019-03-20T03:55:54.188Z,5.90
2019-03-20T03:56:58.404Z,5.90
2019-03-20T03:58:02.664Z,5.90
2019-03-20T03:59:06.859Z,5.90
2019-03-20T04:00:12.812Z,5.90
2019-03-20T04:01:17.012Z,5.90
2019-03-20T04:02:21.354Z,5.90
2019-03-20T04:03:25.606Z,5.90
2019-03-20T04:04:29.786Z,5.80
2019-03-20T04:05:33.987Z,5.80
2019-03-20T04:06:38.184Z,5.80
2019-03-20T04:07:42.399Z,5.80
2019-03-20T04:08:46.633Z,5.80
2019-03-20T04:09:50.839Z,5.80
2019-03-20T04:10:55.042Z,5.80
2019-03-20T04:11:59.462Z,5.80
2019-03-20T04:13:03.705Z,5.80
2019-03-20T04:14:07.908Z,5.70
2019-03-20T04:15:12.715Z,5.70
2019-03-20T04:16:16.912Z,5.70
2019-03-20T04:17:25.499Z,5.70
2019-03-20T04:18:29.755Z,5.70
2019-03-20T04:19:33.952Z,5.70
2019-03-20T04:20:38.153Z,5.70
2019-03-20T04:21:42.380Z,5.70
2019-03-20T04:22:46.602Z,5.70
2019-03-20T04:23:50.838Z,5.70
2019-03-20T04:24:55.051Z,5.70
2019-03-20T04:25:59.269Z,5.60
2019-03-20T04:27:03.469Z,5.60
2019-03-20T04:28:07.668Z,5.60
2019-03-20T04:29:11.915Z,5.60
2019-03-20T04:30:16.132Z,5.60
2019-03-20T04:31:20.340Z,5.60
2019-03-20T04:32:24.531Z,5.60
2019-03-20T04:33:28.757Z,5.60
2019-03-20T04:34:32.954Z,5.60
2019-03-20T04:35:37.180Z,5.60
2019-03-20T04:36:47.758Z,5.60
2019-03-20T04:37:47.244Z,5.60
2019-03-20T04:38:51.475Z,5.60
2019-03-20T04:39:55.684Z,5.60
2019-03-20T04:40:59.890Z,5.50
2019-03-20T04:42:04.088Z,5.50
2019-03-20T04:43:08.285Z,5.50
2019-03-20T04:44:12.564Z,5.50
2019-03-20T04:45:16.769Z,5.50
2019-03-20T04:46:20.960Z,5.50
2019-03-20T04:47:25.195Z,5.50
2019-03-20T04:48:29.399Z,5.50
2019-03-20T04:49:33.632Z,5.50
2019-03-20T04:50:37.832Z,5.50
2019-03-20T04:51:42.036Z,5.60
2019-03-20T04:52:46.235Z,5.60
2019-03-20T04:53:50.495Z,5.60
2019-03-20T04:54:54.699Z,5.50
2019-03-20T04:55:58.905Z,5.60
2019-03-20T04:57:03.107Z,5.60
2019-03-20T04:58:07.301Z,5.60
2019-03-20T04:59:11.554Z,5.60
2019-03-20T05:00:15.955Z,5.60
2019-03-20T05:01:20.142Z,5.50
2019-03-20T05:02:24.403Z,5.50
2019-03-20T05:03:28.613Z,5.50
2019-03-20T05:04:32.851Z,5.50
2019-03-20T05:05:37.084Z,5.50
2019-03-20T05:06:41.290Z,5.50
2019-03-20T05:07:45.503Z,5.50
2019-03-20T05:08:49.694Z,5.50
2019-03-20T05:09:53.930Z,5.60
2019-03-20T05:10:58.126Z,5.60
2019-03-20T05:12:02.333Z,5.60
2019-03-20T05:13:06.634Z,5.60
2019-03-20T05:14:12.456Z,5.60
2019-03-20T05:15:16.894Z,5.60
2019-03-20T05:16:21.119Z,5.50
2019-03-20T05:17:25.318Z,5.50
2019-03-20T05:18:29.623Z,5.50
2019-03-20T05:19:33.842Z,5.50
2019-03-20T05:20:38.425Z,5.50
2019-03-20T05:21:42.615Z,5.60
2019-03-20T05:22:46.817Z,5.50
2019-03-20T05:23:51.040Z,5.50
2019-03-20T05:24:55.267Z,5.50
2019-03-20T05:25:59.508Z,5.50
2019-03-20T05:27:03.712Z,5.50
2019-03-20T05:28:07.945Z,5.60
2019-03-20T05:29:12.143Z,5.60
2019-03-20T05:30:16.378Z,5.50
2019-03-20T05:31:21.223Z,5.60
2019-03-20T05:32:25.399Z,5.60
2019-03-20T05:33:29.595Z,5.60
2019-03-20T05:34:33.855Z,5.70
2019-03-20T05:35:38.161Z,5.70
2019-03-20T05:36:42.370Z,5.70
2019-03-20T05:37:46.573Z,5.70
2019-03-20T05:38:50.868Z,5.60
2019-03-20T05:39:55.230Z,5.70
2019-03-20T05:40:59.395Z,5.60
2019-03-20T05:42:03.595Z,5.70
2019-03-20T05:43:07.783Z,5.70
2019-03-20T05:44:11.983Z,5.70
2019-03-20T05:45:16.238Z,5.70
2019-03-20T05:46:20.419Z,5.70
2019-03-20T05:47:24.658Z,5.60
2019-03-20T05:48:28.831Z,5.70
2019-03-20T05:49:33.040Z,5.60
2019-03-20T05:50:37.276Z,5.70
2019-03-20T05:51:41.568Z,5.70
2019-03-20T05:52:45.770Z,5.70
2019-03-20T05:53:49.972Z,5.80
2019-03-20T05:54:54.208Z,5.70
2019-03-20T05:55:58.423Z,5.80
2019-03-20T05:57:02.640Z,5.80
2019-03-20T05:58:06.827Z,5.80
2019-03-20T05:59:12.131Z,5.80
2019-03-20T06:00:16.872Z,5.80
2019-03-20T06:01:21.071Z,5.90
2019-03-20T06:02:25.875Z,6.00
2019-03-20T06:03:30.174Z,6.00
2019-03-20T06:04:34.374Z,6.10
2019-03-20T06:05:38.651Z,6.10
2019-03-20T06:06:42.855Z,6.20
2019-03-20T06:07:47.068Z,6.30
2019-03-20T06:08:51.266Z,6.30
2019-03-20T06:09:55.476Z,6.40
2019-03-20T06:10:59.707Z,6.40
2019-03-20T06:12:03.910Z,6.50
2019-03-20T06:13:08.142Z,6.50
2019-03-20T06:14:12.346Z,6.60
2019-03-20T06:15:16.619Z,6.60
2019-03-20T06:16:20.848Z,6.60
2019-03-20T06:17:25.050Z,6.60
2019-03-20T06:18:29.275Z,6.70
2019-03-20T06:19:33.479Z,6.70
2019-03-20T06:20:37.811Z,6.70
2019-03-20T06:21:41.935Z,6.70
2019-03-20T06:22:46.146Z,6.70
2019-03-20T06:23:50.356Z,6.80
2019-03-20T06:24:54.548Z,6.80
2019-03-20T06:25:58.933Z,6.80
2019-03-20T06:27:03.160Z,6.80
2019-03-20T06:28:07.375Z,6.90
2019-03-20T06:29:11.671Z,6.90
2019-03-20T06:30:16.013Z,6.90
2019-03-20T06:31:20.262Z,7.00
2019-03-20T06:32:24.468Z,7.00
2019-03-20T06:33:28.677Z,7.10
2019-03-20T06:34:32.878Z,7.20
2019-03-20T06:35:37.285Z,7.30
2019-03-20T06:36:41.508Z,7.30
2019-03-20T06:37:45.720Z,7.30
2019-03-20T06:38:49.987Z,7.40
2019-03-20T06:39:54.183Z,7.40
2019-03-20T06:40:58.427Z,7.50
2019-03-20T06:42:02.644Z,7.50
2019-03-20T06:43:06.880Z,7.60
2019-03-20T06:44:11.079Z,7.60
2019-03-20T06:45:15.294Z,7.60
2019-03-20T06:46:19.520Z,7.70
2019-03-20T06:47:23.731Z,7.90
2019-03-20T06:48:27.923Z,8.10
2019-03-20T06:49:32.115Z,8.20
2019-03-20T06:50:36.315Z,8.40
2019-03-20T06:51:40.539Z,8.70
2019-03-20T06:52:44.726Z,9.30
2019-03-20T06:53:48.940Z,10.00
2019-03-20T06:54:53.157Z,10.60
2019-03-20T06:55:57.407Z,11.10
2019-03-20T06:57:01.604Z,11.50
2019-03-20T06:58:05.814Z,11.80
2019-03-20T06:59:50.508Z,12.00
2019-03-20T07:01:10.643Z,12.00
2019-03-20T07:02:14.813Z,11.80
2019-03-20T07:03:44.259Z,11.60
2019-03-20T07:05:31.726Z,11.50
2019-03-20T07:06:46.615Z,11.20
2019-03-20T07:07:50.804Z,10.90
2019-03-20T07:09:18.999Z,11.00
2019-03-20T07:11:07.071Z,11.00
2019-03-20T07:12:11.352Z,10.70
2019-03-20T07:13:15.555Z,10.40
2019-03-20T07:14:19.766Z,10.30
2019-03-20T07:15:23.990Z,10.30
2019-03-20T07:16:28.258Z,10.50
2019-03-20T07:17:32.445Z,11.20
2019-03-20T07:18:36.653Z,12.00
2019-03-20T07:19:40.854Z,12.70
2019-03-20T07:20:45.060Z,13.50
2019-03-20T07:21:49.292Z,13.80
2019-03-20T07:22:53.499Z,14.20
2019-03-20T07:23:57.712Z,14.60
2019-03-20T07:25:01.910Z,14.90
2019-03-20T07:26:06.130Z,15.00
2019-03-20T07:27:10.368Z,15.00
2019-03-20T07:28:14.576Z,14.80
2019-03-20T07:29:18.783Z,14.60
2019-03-20T07:30:22.987Z,14.40
2019-03-20T07:31:27.207Z,14.20
2019-03-20T07:32:31.439Z,13.80
2019-03-20T07:33:36.859Z,13.70
2019-03-20T07:34:41.058Z,13.70
2019-03-20T07:35:45.255Z,13.60
2019-03-20T07:36:49.826Z,13.40
2019-03-20T07:37:56.277Z,13.30
2019-03-20T07:38:59.898Z,13.20
2019-03-20T07:40:04.543Z,13.10
2019-03-20T07:41:08.735Z,13.10
2019-03-20T07:42:12.967Z,13.00
2019-03-20T07:43:17.183Z,13.00
2019-03-20T07:44:21.392Z,12.80
2019-03-20T07:45:25.590Z,13.10
2019-03-20T07:46:29.799Z,13.70
2019-03-20T07:47:34.031Z,14.40
2019-03-20T07:48:40.610Z,15.00
2019-03-20T07:49:44.112Z,15.70
2019-03-20T07:50:48.320Z,16.20
2019-03-20T07:51:52.523Z,16.60
2019-03-20T07:52:56.815Z,17.00
2019-03-20T07:54:01.038Z,17.20
2019-03-20T07:55:05.403Z,17.30
2019-03-20T07:56:09.612Z,17.50
2019-03-20T07:57:13.890Z,17.70
2019-03-20T07:58:18.062Z,18.00
2019-03-20T07:59:22.269Z,18.40
2019-03-20T08:00:26.476Z,18.80
2019-03-20T08:01:30.703Z,19.30
2019-03-20T08:02:34.991Z,19.90
2019-03-20T08:03:39.195Z,20.30
2019-03-20T08:04:43.406Z,19.90
2019-03-20T08:05:47.615Z,19.70
2019-03-20T08:06:51.823Z,19.30
2019-03-20T08:08:06.380Z,18.70
2019-03-20T08:09:01.899Z,18.30
2019-03-20T08:10:08.109Z,17.80
2019-03-20T08:11:12.310Z,17.30
2019-03-20T08:12:16.507Z,16.90
2019-03-20T08:13:20.745Z,16.60
2019-03-20T08:14:24.949Z,16.30
2019-03-20T08:15:29.179Z,15.80
2019-03-20T08:16:33.451Z,15.40
2019-03-20T08:17:37.675Z,14.90
2019-03-20T08:18:41.877Z,14.40
2019-03-20T08:19:46.079Z,14.30
2019-03-20T08:20:50.306Z,14.20
2019-03-20T08:21:54.499Z,14.10
2019-03-20T08:22:58.727Z,14.00
2019-03-20T08:24:02.931Z,14.00
2019-03-20T08:25:07.230Z,14.00
2019-03-20T08:26:11.448Z,14.00
2019-03-20T08:27:15.676Z,14.00
2019-03-20T08:28:19.903Z,14.00
2019-03-20T08:29:24.112Z,13.90
2019-03-20T08:30:28.312Z,13.70
2019-03-20T08:31:32.521Z,13.50
2019-03-20T08:32:36.727Z,13.50
2019-03-20T08:33:40.950Z,13.70
2019-03-20T08:34:45.162Z,13.80
2019-03-20T08:35:49.353Z,14.00
2019-03-20T08:36:53.554Z,14.30
2019-03-20T08:37:57.760Z,14.20
2019-03-20T08:39:02.001Z,14.00
2019-03-20T08:40:06.608Z,13.80
2019-03-20T08:41:10.865Z,13.50
2019-03-20T08:42:15.019Z,13.30
2019-03-20T08:43:19.260Z,13.10
2019-03-20T08:44:23.464Z,13.10
2019-03-20T08:45:27.650Z,13.20
2019-03-20T08:46:31.856Z,13.20
2019-03-20T08:47:36.207Z,13.10
2019-03-20T08:48:40.451Z,13.10
2019-03-20T08:49:44.683Z,13.10
2019-03-20T08:50:48.864Z,13.10
2019-03-20T08:51:53.070Z,13.20
2019-03-20T08:52:57.284Z,13.20
2019-03-20T08:54:01.512Z,13.20
2019-03-20T08:55:06.211Z,13.10
2019-03-20T08:56:10.416Z,13.10
2019-03-20T08:57:14.620Z,13.00
2019-03-20T08:58:18.867Z,13.00
2019-03-20T08:59:23.079Z,13.10
2019-03-20T09:00:27.289Z,13.10
2019-03-20T09:01:31.494Z,13.20
2019-03-20T09:02:35.687Z,13.20
2019-03-20T09:03:39.926Z,12.90
2019-03-20T09:04:44.140Z,12.80
2019-03-20T09:05:48.339Z,12.80
2019-03-20T09:06:52.480Z,12.80
2019-03-20T09:07:56.681Z,12.80
2019-03-20T09:09:00.912Z,12.80
2019-03-20T09:10:06.521Z,12.90
2019-03-20T09:11:10.720Z,12.90
2019-03-20T09:12:14.917Z,12.80
2019-03-20T09:13:19.117Z,12.90
2019-03-20T09:14:23.355Z,12.90
2019-03-20T09:15:27.551Z,12.90
2019-03-20T09:16:31.764Z,13.00
2019-03-20T09:17:35.995Z,13.10
2019-03-20T09:18:40.187Z,13.00
2019-03-20T09:19:44.426Z,12.90
2019-03-20T09:20:48.628Z,12.90
2019-03-20T09:21:52.816Z,13.00
2019-03-20T09:22:57.015Z,13.10
2019-03-20T09:24:01.271Z,13.20
2019-03-20T09:25:06.311Z,13.30
2019-03-20T09:26:10.543Z,13.30
2019-03-20T09:27:14.751Z,13.40
2019-03-20T09:28:18.975Z,13.50
2019-03-20T09:29:23.198Z,13.50
2019-03-20T09:30:27.406Z,13.50
2019-03-20T09:31:31.612Z,13.50
2019-03-20T09:32:35.817Z,13.60
2019-03-20T09:33:40.017Z,13.60
2019-03-20T09:34:44.247Z,13.60
2019-03-20T09:35:48.543Z,13.60
2019-03-20T09:36:52.766Z,13.70
2019-03-20T09:37:56.975Z,13.80
2019-03-20T09:39:01.177Z,13.90
2019-03-20T09:40:05.988Z,14.00
2019-03-20T09:41:10.199Z,14.00
2019-03-20T09:42:14.407Z,14.00
2019-03-20T09:43:18.619Z,14.00
2019-03-20T09:44:22.867Z,14.10
2019-03-20T09:45:27.076Z,14.20
2019-03-20T09:46:31.352Z,14.30
2019-03-20T09:47:35.562Z,14.10
2019-03-20T09:48:39.770Z,14.10
2019-03-20T09:49:44.021Z,14.00
2019-03-20T09:50:48.267Z,14.00
2019-03-20T09:51:52.465Z,14.10
2019-03-20T09:52:56.705Z,14.20
2019-03-20T09:54:00.908Z,14.40
2019-03-20T09:55:05.392Z,14.50
2019-03-20T09:56:09.596Z,14.50
2019-03-20T09:57:13.795Z,14.60
2019-03-20T09:58:18.000Z,14.60
2019-03-20T09:59:22.239Z,14.60
2019-03-20T10:00:26.484Z,14.70
2019-03-20T10:01:30.695Z,14.70
2019-03-20T10:02:34.908Z,14.80
2019-03-20T10:03:39.315Z,14.90
2019-03-20T10:04:43.523Z,15.00
2019-03-20T10:05:47.789Z,15.00
2019-03-20T10:06:51.983Z,15.10
2019-03-20T10:07:56.196Z,15.10
2019-03-20T10:09:01.980Z,15.10
2019-03-20T10:10:07.223Z,15.30
2019-03-20T10:11:11.423Z,15.40
2019-03-20T10:12:15.672Z,15.40
2019-03-20T10:13:19.872Z,15.40
2019-03-20T10:14:24.107Z,15.40
2019-03-20T10:15:28.372Z,15.50
2019-03-20T10:16:32.580Z,15.60
2019-03-20T10:17:36.884Z,15.70
2019-03-20T10:18:41.087Z,15.80
2019-03-20T10:19:45.279Z,15.90
2019-03-20T10:20:49.464Z,16.20
2019-03-20T10:21:53.799Z,16.40
2019-03-20T10:22:58.003Z,16.50
2019-03-20T10:24:02.212Z,16.60
2019-03-20T10:25:06.582Z,16.60
2019-03-20T10:26:10.859Z,16.60
2019-03-20T10:27:15.054Z,16.50
2019-03-20T10:28:19.499Z,16.40
2019-03-20T10:29:23.709Z,16.30
2019-03-20T10:30:27.987Z,16.30
2019-03-20T10:31:32.187Z,16.20
2019-03-20T10:32:36.392Z,16.20
2019-03-20T10:33:40.586Z,16.10
2019-03-20T10:34:44.779Z,16.00
2019-03-20T10:35:50.564Z,15.80
2019-03-20T10:36:55.020Z,15.80
2019-03-20T10:37:59.228Z,15.80
2019-03-20T10:39:06.783Z,15.70
2019-03-20T10:40:12.504Z,15.60
2019-03-20T10:41:16.742Z,15.60
2019-03-20T10:42:20.939Z,15.70
2019-03-20T10:43:25.156Z,15.70
2019-03-20T10:44:29.360Z,15.80
2019-03-20T10:45:33.672Z,15.80
2019-03-20T10:46:37.916Z,15.80
2019-03-20T10:47:42.141Z,15.70
2019-03-20T10:48:46.320Z,15.70
2019-03-20T10:49:50.539Z,15.60
2019-03-20T10:50:54.734Z,15.60
2019-03-20T10:51:58.972Z,15.60
2019-03-20T10:53:03.176Z,15.50
2019-03-20T10:54:07.376Z,15.40
2019-03-20T10:55:11.792Z,15.40
2019-03-20T10:56:16.015Z,15.30
2019-03-20T10:57:20.224Z,15.10
2019-03-20T10:58:24.432Z,15.10
2019-03-20T10:59:28.628Z,15.10
2019-03-20T11:00:32.827Z,15.00
2019-03-20T11:01:42.506Z,14.90
2019-03-20T11:02:42.922Z,14.70
2019-03-20T11:03:47.146Z,14.80
2019-03-20T11:04:51.335Z,14.80
2019-03-20T11:05:55.540Z,14.90
2019-03-20T11:06:59.778Z,14.90
2019-03-20T11:08:03.983Z,15.00
2019-03-20T11:09:17.666Z,15.10
2019-03-20T11:10:17.085Z,15.20
2019-03-20T11:11:27.100Z,15.30
2019-03-20T11:12:27.172Z,15.40
2019-03-20T11:13:31.394Z,15.50
2019-03-20T11:14:35.593Z,15.70
2019-03-20T11:15:39.806Z,15.90
2019-03-20T11:16:44.007Z,16.10
2019-03-20T11:17:48.236Z,16.20
2019-03-20T11:18:52.436Z,16.30
2019-03-20T11:19:56.646Z,16.40
2019-03-20T11:21:00.885Z,16.60
2019-03-20T11:22:05.091Z,16.70
2019-03-20T11:23:09.299Z,16.70
2019-03-20T11:24:15.288Z,16.70
2019-03-20T11:25:20.049Z,16.70
2019-03-20T11:26:24.277Z,16.80
2019-03-20T11:27:28.503Z,16.80
2019-03-20T11:28:32.704Z,16.80
2019-03-20T11:29:36.903Z,16.80
2019-03-20T11:30:41.148Z,16.80
2019-03-20T11:31:45.305Z,16.90
2019-03-20T11:32:49.532Z,17.10
2019-03-20T11:33:53.733Z,17.40
2019-03-20T11:34:57.931Z,17.60
2019-03-20T11:36:02.157Z,17.80
2019-03-20T11:37:06.371Z,17.90
2019-03-20T11:38:10.568Z,17.90
2019-03-20T11:39:14.861Z,17.90
2019-03-20T11:40:24.084Z,17.80
2019-03-20T11:41:28.292Z,17.60
2019-03-20T11:42:32.522Z,17.40
2019-03-20T11:43:36.736Z,17.30
2019-03-20T11:44:40.947Z,17.10
2019-03-20T11:45:45.144Z,16.90
2019-03-20T11:46:49.344Z,16.90
2019-03-20T11:47:53.611Z,16.70
2019-03-20T11:48:57.783Z,16.60
2019-03-20T11:50:01.996Z,16.40
2019-03-20T11:51:06.175Z,16.00
2019-03-20T11:52:10.363Z,15.80
2019-03-20T11:53:14.596Z,15.70
2019-03-20T11:54:18.789Z,15.40
2019-03-20T11:55:22.997Z,15.30
2019-03-20T11:56:27.183Z,15.30
2019-03-20T11:57:31.411Z,15.30
2019-03-20T11:58:35.599Z,15.30
2019-03-20T11:59:39.819Z,15.30
2019-03-20T12:00:44.074Z,15.30
2019-03-20T12:01:48.284Z,15.20
2019-03-20T12:02:52.518Z,15.20
2019-03-20T12:03:56.721Z,15.20
2019-03-20T12:05:00.923Z,15.10
2019-03-20T12:06:05.183Z,15.10
2019-03-20T12:07:09.396Z,15.20
2019-03-20T12:08:13.618Z,15.30
2019-03-20T12:09:17.835Z,15.30
2019-03-20T12:10:22.599Z,15.40
2019-03-20T12:11:26.800Z,15.40
2019-03-20T12:12:31.003Z,15.50
2019-03-20T12:13:35.227Z,15.40
2019-03-20T12:14:39.435Z,15.30
2019-03-20T12:15:43.636Z,15.30
2019-03-20T12:16:47.844Z,15.20
2019-03-20T12:17:52.069Z,15.10
2019-03-20T12:18:56.262Z,15.10
2019-03-20T12:20:00.473Z,15.10
2019-03-20T12:21:04.695Z,15.20
2019-03-20T12:22:08.898Z,15.10
2019-03-20T12:23:13.126Z,15.10
2019-03-20T12:24:17.316Z,15.20
2019-03-20T12:25:26.272Z,15.40
2019-03-20T12:26:30.496Z,15.50
2019-03-20T12:27:34.768Z,15.40
2019-03-20T12:28:38.996Z,15.40
2019-03-20T12:29:43.203Z,15.50
2019-03-20T12:30:47.407Z,15.50
2019-03-20T12:31:51.615Z,15.40
2019-03-20T12:32:55.835Z,15.40
2019-03-20T12:34:02.151Z,15.40
2019-03-20T12:35:07.701Z,15.30
2019-03-20T12:36:11.923Z,15.30
2019-03-20T12:37:16.122Z,15.30
2019-03-20T12:38:20.347Z,15.40
2019-03-20T12:39:27.724Z,15.40
2019-03-20T12:40:31.936Z,15.50
2019-03-20T12:41:36.151Z,15.50
2019-03-20T12:42:40.390Z,15.60
2019-03-20T12:43:45.555Z,15.60
2019-03-20T12:44:49.838Z,15.60
2019-03-20T12:45:54.048Z,15.60
2019-03-20T12:46:58.273Z,15.60
2019-03-20T12:48:02.486Z,15.60
2019-03-20T12:49:06.724Z,15.60
2019-03-20T12:50:11.467Z,15.50
2019-03-20T12:51:15.667Z,15.50
2019-03-20T12:52:19.875Z,15.50
2019-03-20T12:53:26.894Z,15.50
2019-03-20T12:54:31.141Z,15.50
2019-03-20T12:55:35.375Z,15.40
2019-03-20T12:56:39.575Z,15.30
2019-03-20T12:57:43.781Z,15.10
2019-03-20T12:58:51.831Z,15.00
2019-03-20T12:59:56.088Z,14.90
2019-03-20T13:01:00.288Z,14.80
2019-03-20T13:02:04.530Z,14.80
2019-03-20T13:04:16.315Z,14.70
2019-03-20T13:05:21.105Z,14.70
2019-03-20T13:06:25.304Z,14.70
2019-03-20T13:07:29.515Z,14.80
2019-03-20T13:08:33.715Z,14.90
2019-03-20T13:09:37.947Z,14.80
2019-03-20T13:10:42.143Z,14.80
2019-03-20T13:11:46.340Z,14.80
2019-03-20T13:12:50.568Z,14.80
2019-03-20T13:13:54.791Z,14.80
2019-03-20T13:14:58.987Z,14.90
2019-03-20T13:16:03.220Z,14.90
2019-03-20T13:17:07.388Z,14.90
2019-03-20T13:18:11.582Z,14.80
2019-03-20T13:19:15.741Z,14.80
2019-03-20T13:20:19.986Z,14.80
2019-03-20T13:21:24.204Z,14.70
2019-03-20T13:22:28.407Z,14.60
2019-03-20T13:23:32.914Z,14.60
2019-03-20T13:24:37.143Z,14.60
2019-03-20T13:25:41.340Z,14.60
2019-03-20T13:26:45.570Z,14.60
2019-03-20T13:27:49.767Z,14.70
2019-03-20T13:28:53.973Z,14.70
2019-03-20T13:29:58.219Z,14.70
2019-03-20T13:31:05.894Z,14.70
2019-03-20T13:32:10.080Z,14.80
2019-03-20T13:33:24.986Z,14.80
2019-03-20T13:34:20.150Z,14.80
2019-03-20T13:35:24.358Z,14.80
2019-03-20T13:36:28.557Z,14.80
2019-03-20T13:37:32.783Z,14.80
2019-03-20T13:38:36.989Z,14.80
2019-03-20T13:39:41.210Z,14.80
2019-03-20T13:40:45.420Z,14.90
2019-03-20T13:41:49.715Z,15.00
2019-03-20T13:42:53.918Z,15.00
2019-03-20T13:43:58.120Z,15.00
2019-03-20T13:45:02.357Z,15.10
2019-03-20T13:46:06.592Z,15.10
2019-03-20T13:47:10.891Z,14.90
2019-03-20T13:48:15.078Z,14.90
2019-03-20T13:49:19.283Z,14.90
2019-03-20T13:50:23.508Z,14.90
2019-03-20T13:51:27.701Z,15.00
2019-03-20T13:52:31.995Z,15.10
2019-03-20T13:53:36.212Z,15.10
2019-03-20T13:54:40.452Z,15.10
2019-03-20T13:55:44.653Z,15.10
2019-03-20T13:56:48.921Z,15.10
2019-03-20T13:57:53.119Z,15.10
2019-03-20T13:58:57.316Z,15.10
2019-03-20T14:00:01.564Z,15.10
2019-03-20T14:01:05.809Z,15.20
2019-03-20T14:02:10.019Z,15.10
2019-03-20T14:03:14.215Z,15.10
2019-03-20T14:04:18.418Z,15.10
2019-03-20T14:05:22.654Z,15.10
2019-03-20T14:06:26.859Z,15.10